sensor_id;sensor_type;location;lat;lon;timestamp;P1;durP1;ratioP1;P2;durP2;ratioP2
16193;SDS011;8204;53.582;10.080;2023-05-14T00:02:03;9.50;;;8.80;;
16193;SDS011;8204;53.582;10.080;2023-05-14T00:04:36;9.13;;;7.60;;
16193;SDS011;8204;53.582;10.080;2023-05-14T00:07:06;6.27;;;5.77;;
16193;SDS011;8204;53.582;10.080;2023-05-14T00:09:35;8.37;;;7.57;;
16193;SDS011;8204;53.582;10.080;2023-05-14T00:12:05;7.27;;;6.67;;
16193;SDS011;8204;53.582;10.080;2023-05-14T00:14:34;8.93;;;7.33;;
16193;SDS011;8204;53.582;10.080;2023-05-14T00:17:04;7.30;;;6.50;;
16193;SDS011;8204;53.582;10.080;2023-05-14T00:19:38;9.17;;;8.37;;
16193;SDS011;8204;53.582;10.080;2023-05-14T00:22:07;6.70;;;6.13;;
16193;SDS011;8204;53.582;10.080;2023-05-14T00:24:37;7.80;;;7.13;;
16193;SDS011;8204;53.582;10.080;2023-05-14T00:27:06;9.10;;;8.23;;
16193;SDS011;8204;53.582;10.080;2023-05-14T00:29:35;7.70;;;7.10;;
16193;SDS011;8204;53.582;10.080;2023-05-14T00:32:05;8.13;;;7.53;;
16193;SDS011;8204;53.582;10.080;2023-05-14T00:34:40;9.13;;;7.20;;
16193;SDS011;8204;53.582;10.080;2023-05-14T00:37:10;8.57;;;7.57;;
16193;SDS011;8204;53.582;10.080;2023-05-14T00:39:49;6.97;;;6.37;;
16193;SDS011;8204;53.582;10.080;2023-05-14T00:42:18;8.57;;;7.87;;
16193;SDS011;8204;53.582;10.080;2023-05-14T00:44:47;8.27;;;7.50;;
16193;SDS011;8204;53.582;10.080;2023-05-14T00:47:16;7.60;;;7.00;;
16193;SDS011;8204;53.582;10.080;2023-05-14T00:49:49;8.67;;;7.50;;
16193;SDS011;8204;53.582;10.080;2023-05-14T00:52:18;7.17;;;6.60;;
16193;SDS011;8204;53.582;10.080;2023-05-14T00:54:47;7.77;;;7.17;;
16193;SDS011;8204;53.582;10.080;2023-05-14T00:57:17;7.77;;;6.87;;
16193;SDS011;8204;53.582;10.080;2023-05-14T00:59:46;8.37;;;7.77;;
16193;SDS011;8204;53.582;10.080;2023-05-14T01:02:15;7.20;;;6.70;;
16193;SDS011;8204;53.582;10.080;2023-05-14T01:04:44;8.57;;;7.37;;
16193;SDS011;8204;53.582;10.080;2023-05-14T01:07:18;8.17;;;7.47;;
16193;SDS011;8204;53.582;10.080;2023-05-14T01:09:53;7.30;;;6.70;;
16193;SDS011;8204;53.582;10.080;2023-05-14T01:12:28;7.43;;;6.73;;
16193;SDS011;8204;53.582;10.080;2023-05-14T01:15:05;8.03;;;7.23;;
16193;SDS011;8204;53.582;10.080;2023-05-14T01:17:40;6.90;;;6.30;;
16193;SDS011;8204;53.582;10.080;2023-05-14T01:20:13;7.57;;;6.87;;
16193;SDS011;8204;53.582;10.080;2023-05-14T01:22:45;7.90;;;7.20;;
16193;SDS011;8204;53.582;10.080;2023-05-14T01:25:14;9.33;;;8.63;;
16193;SDS011;8204;53.582;10.080;2023-05-14T01:27:44;8.03;;;7.07;;
16193;SDS011;8204;53.582;10.080;2023-05-14T01:30:20;8.13;;;7.13;;
16193;SDS011;8204;53.582;10.080;2023-05-14T01:32:52;7.57;;;6.93;;
16193;SDS011;8204;53.582;10.080;2023-05-14T01:35:24;8.10;;;7.40;;
16193;SDS011;8204;53.582;10.080;2023-05-14T01:37:59;9.30;;;8.30;;
16193;SDS011;8204;53.582;10.080;2023-05-14T01:40:30;8.07;;;7.27;;
16193;SDS011;8204;53.582;10.080;2023-05-14T01:43:00;8.13;;;7.27;;
16193;SDS011;8204;53.582;10.080;2023-05-14T01:45:30;7.00;;;6.40;;
16193;SDS011;8204;53.582;10.080;2023-05-14T01:47:59;7.90;;;7.30;;
16193;SDS011;8204;53.582;10.080;2023-05-14T01:50:28;7.47;;;6.97;;
16193;SDS011;8204;53.582;10.080;2023-05-14T01:52:59;7.23;;;6.63;;
16193;SDS011;8204;53.582;10.080;2023-05-14T01:55:30;8.17;;;7.47;;
16193;SDS011;8204;53.582;10.080;2023-05-14T01:57:59;7.73;;;6.77;;
16193;SDS011;8204;53.582;10.080;2023-05-14T02:00:28;8.20;;;7.50;;
16193;SDS011;8204;53.582;10.080;2023-05-14T02:02:57;7.73;;;7.13;;
16193;SDS011;8204;53.582;10.080;2023-05-14T02:05:26;8.30;;;7.57;;
16193;SDS011;8204;53.582;10.080;2023-05-14T02:07:55;8.23;;;7.40;;
16193;SDS011;8204;53.582;10.080;2023-05-14T02:10:27;7.97;;;7.37;;
16193;SDS011;8204;53.582;10.080;2023-05-14T02:12:55;8.23;;;7.57;;
16193;SDS011;8204;53.582;10.080;2023-05-14T02:15:25;8.63;;;7.93;;
16193;SDS011;8204;53.582;10.080;2023-05-14T02:17:55;10.07;;;7.30;;
16193;SDS011;8204;53.582;10.080;2023-05-14T02:20:24;8.20;;;7.60;;
16193;SDS011;8204;53.582;10.080;2023-05-14T02:22:53;8.30;;;7.53;;
16193;SDS011;8204;53.582;10.080;2023-05-14T02:25:22;7.87;;;7.13;;
16193;SDS011;8204;53.582;10.080;2023-05-14T02:27:54;8.77;;;8.07;;
16193;SDS011;8204;53.582;10.080;2023-05-14T02:30:22;8.80;;;8.20;;
16193;SDS011;8204;53.582;10.080;2023-05-14T02:32:51;8.53;;;7.80;;
16193;SDS011;8204;53.582;10.080;2023-05-14T02:35:20;7.77;;;6.97;;
16193;SDS011;8204;53.582;10.080;2023-05-14T02:37:49;8.27;;;7.47;;
16193;SDS011;8204;53.582;10.080;2023-05-14T02:40:19;8.40;;;7.80;;
16193;SDS011;8204;53.582;10.080;2023-05-14T02:42:47;8.30;;;7.70;;
16193;SDS011;8204;53.582;10.080;2023-05-14T02:45:19;12.43;;;7.97;;
16193;SDS011;8204;53.582;10.080;2023-05-14T02:47:49;8.87;;;8.07;;
16193;SDS011;8204;53.582;10.080;2023-05-14T02:50:17;9.57;;;8.70;;
16193;SDS011;8204;53.582;10.080;2023-05-14T02:52:47;13.40;;;8.40;;
16193;SDS011;8204;53.582;10.080;2023-05-14T02:55:16;9.13;;;8.27;;
16193;SDS011;8204;53.582;10.080;2023-05-14T02:57:45;8.63;;;7.97;;
16193;SDS011;8204;53.582;10.080;2023-05-14T03:00:14;16.27;;;9.23;;
16193;SDS011;8204;53.582;10.080;2023-05-14T03:02:46;8.53;;;7.93;;
16193;SDS011;8204;53.582;10.080;2023-05-14T03:05:15;8.83;;;8.23;;
16193;SDS011;8204;53.582;10.080;2023-05-14T03:07:44;9.00;;;7.97;;
16193;SDS011;8204;53.582;10.080;2023-05-14T03:10:13;9.13;;;8.30;;
16193;SDS011;8204;53.582;10.080;2023-05-14T03:12:42;9.00;;;7.90;;
16193;SDS011;8204;53.582;10.080;2023-05-14T03:15:11;9.37;;;8.57;;
16193;SDS011;8204;53.582;10.080;2023-05-14T03:17:40;8.10;;;7.40;;
16193;SDS011;8204;53.582;10.080;2023-05-14T03:20:12;9.37;;;8.57;;
16193;SDS011;8204;53.582;10.080;2023-05-14T03:22:41;9.50;;;8.33;;
16193;SDS011;8204;53.582;10.080;2023-05-14T03:25:10;8.43;;;7.73;;
16193;SDS011;8204;53.582;10.080;2023-05-14T03:27:40;8.67;;;7.87;;
16193;SDS011;8204;53.582;10.080;2023-05-14T03:30:09;8.80;;;8.00;;
16193;SDS011;8204;53.582;10.080;2023-05-14T03:32:39;9.33;;;8.43;;
16193;SDS011;8204;53.582;10.080;2023-05-14T03:35:08;9.73;;;8.63;;
16193;SDS011;8204;53.582;10.080;2023-05-14T03:37:39;8.93;;;8.20;;
16193;SDS011;8204;53.582;10.080;2023-05-14T03:40:09;11.97;;;9.23;;
16193;SDS011;8204;53.582;10.080;2023-05-14T03:42:38;8.63;;;8.00;;
16193;SDS011;8204;53.582;10.080;2023-05-14T03:45:08;10.63;;;9.57;;
16193;SDS011;8204;53.582;10.080;2023-05-14T03:47:37;8.87;;;8.03;;
16193;SDS011;8204;53.582;10.080;2023-05-14T03:50:07;8.57;;;7.87;;
16193;SDS011;8204;53.582;10.080;2023-05-14T03:52:36;9.90;;;9.10;;
16193;SDS011;8204;53.582;10.080;2023-05-14T03:55:08;10.13;;;9.20;;
16193;SDS011;8204;53.582;10.080;2023-05-14T03:57:40;11.10;;;8.80;;
16193;SDS011;8204;53.582;10.080;2023-05-14T04:00:09;9.67;;;8.70;;
16193;SDS011;8204;53.582;10.080;2023-05-14T04:02:40;10.07;;;9.17;;
16193;SDS011;8204;53.582;10.080;2023-05-14T04:05:09;9.20;;;8.50;;
16193;SDS011;8204;53.582;10.080;2023-05-14T04:07:39;10.67;;;9.57;;
16193;SDS011;8204;53.582;10.080;2023-05-14T04:10:11;10.07;;;9.17;;
16193;SDS011;8204;53.582;10.080;2023-05-14T04:12:41;9.90;;;9.00;;
16193;SDS011;8204;53.582;10.080;2023-05-14T04:15:12;9.73;;;8.90;;
16193;SDS011;8204;53.582;10.080;2023-05-14T04:17:41;8.50;;;7.90;;
16193;SDS011;8204;53.582;10.080;2023-05-14T04:20:10;9.27;;;8.57;;
16193;SDS011;8204;53.582;10.080;2023-05-14T04:22:39;9.77;;;8.87;;
16193;SDS011;8204;53.582;10.080;2023-05-14T04:25:11;10.10;;;9.33;;
16193;SDS011;8204;53.582;10.080;2023-05-14T04:27:40;9.17;;;8.43;;
16193;SDS011;8204;53.582;10.080;2023-05-14T04:30:09;10.07;;;9.07;;
16193;SDS011;8204;53.582;10.080;2023-05-14T04:32:38;9.53;;;8.63;;
16193;SDS011;8204;53.582;10.080;2023-05-14T04:35:07;9.83;;;8.83;;
16193;SDS011;8204;53.582;10.080;2023-05-14T04:37:37;9.60;;;8.90;;
16193;SDS011;8204;53.582;10.080;2023-05-14T04:40:07;10.90;;;9.80;;
16193;SDS011;8204;53.582;10.080;2023-05-14T04:42:39;9.73;;;8.83;;
16193;SDS011;8204;53.582;10.080;2023-05-14T04:45:09;9.43;;;8.73;;
16193;SDS011;8204;53.582;10.080;2023-05-14T04:47:39;14.37;;;13.07;;
16193;SDS011;8204;53.582;10.080;2023-05-14T04:50:09;10.57;;;9.83;;
16193;SDS011;8204;53.582;10.080;2023-05-14T04:52:38;10.07;;;9.17;;
16193;SDS011;8204;53.582;10.080;2023-05-14T04:55:08;10.00;;;9.10;;
16193;SDS011;8204;53.582;10.080;2023-05-14T04:57:40;9.23;;;8.40;;
16193;SDS011;8204;53.582;10.080;2023-05-14T05:00:09;9.97;;;9.27;;
16193;SDS011;8204;53.582;10.080;2023-05-14T05:02:39;10.10;;;9.10;;
16193;SDS011;8204;53.582;10.080;2023-05-14T05:05:08;10.03;;;9.20;;
16193;SDS011;8204;53.582;10.080;2023-05-14T05:07:38;11.23;;;9.27;;
16193;SDS011;8204;53.582;10.080;2023-05-14T05:10:07;10.30;;;9.40;;
16193;SDS011;8204;53.582;10.080;2023-05-14T05:12:36;8.83;;;8.07;;
16193;SDS011;8204;53.582;10.080;2023-05-14T05:15:09;9.80;;;8.93;;
16193;SDS011;8204;53.582;10.080;2023-05-14T05:17:38;10.53;;;9.07;;
16193;SDS011;8204;53.582;10.080;2023-05-14T05:20:08;9.30;;;8.70;;
16193;SDS011;8204;53.582;10.080;2023-05-14T05:22:37;9.47;;;8.73;;
16193;SDS011;8204;53.582;10.080;2023-05-14T05:25:07;11.60;;;8.87;;
16193;SDS011;8204;53.582;10.080;2023-05-14T05:27:37;9.73;;;9.03;;
16193;SDS011;8204;53.582;10.080;2023-05-14T05:30:09;8.80;;;8.10;;
16193;SDS011;8204;53.582;10.080;2023-05-14T05:32:39;9.33;;;8.53;;
16193;SDS011;8204;53.582;10.080;2023-05-14T05:35:08;8.70;;;8.00;;
16193;SDS011;8204;53.582;10.080;2023-05-14T05:37:37;9.90;;;9.10;;
16193;SDS011;8204;53.582;10.080;2023-05-14T05:40:07;8.80;;;7.93;;
16193;SDS011;8204;53.582;10.080;2023-05-14T05:42:38;9.33;;;8.40;;
16193;SDS011;8204;53.582;10.080;2023-05-14T05:45:10;9.97;;;9.27;;
16193;SDS011;8204;53.582;10.080;2023-05-14T05:47:39;9.20;;;8.40;;
16193;SDS011;8204;53.582;10.080;2023-05-14T05:50:08;13.63;;;8.80;;
16193;SDS011;8204;53.582;10.080;2023-05-14T05:52:38;9.57;;;8.77;;
16193;SDS011;8204;53.582;10.080;2023-05-14T05:55:08;9.00;;;8.27;;
16193;SDS011;8204;53.582;10.080;2023-05-14T05:57:37;9.00;;;8.30;;
16193;SDS011;8204;53.582;10.080;2023-05-14T06:00:06;9.03;;;8.33;;
16193;SDS011;8204;53.582;10.080;2023-05-14T06:02:41;8.47;;;7.87;;
16193;SDS011;8204;53.582;10.080;2023-05-14T06:05:11;10.10;;;9.30;;
16193;SDS011;8204;53.582;10.080;2023-05-14T06:07:40;9.07;;;8.23;;
16193;SDS011;8204;53.582;10.080;2023-05-14T06:10:09;8.97;;;8.17;;
16193;SDS011;8204;53.582;10.080;2023-05-14T06:12:38;8.60;;;7.90;;
16193;SDS011;8204;53.582;10.080;2023-05-14T06:15:10;8.63;;;8.03;;
16193;SDS011;8204;53.582;10.080;2023-05-14T06:17:39;7.20;;;6.63;;
16193;SDS011;8204;53.582;10.080;2023-05-14T06:20:08;8.70;;;8.07;;
16193;SDS011;8204;53.582;10.080;2023-05-14T06:22:38;7.47;;;6.97;;
16193;SDS011;8204;53.582;10.080;2023-05-14T06:25:08;7.40;;;6.90;;
16193;SDS011;8204;53.582;10.080;2023-05-14T06:27:38;8.70;;;7.87;;
16193;SDS011;8204;53.582;10.080;2023-05-14T06:30:10;7.73;;;7.13;;
16193;SDS011;8204;53.582;10.080;2023-05-14T06:32:40;7.67;;;7.07;;
16193;SDS011;8204;53.582;10.080;2023-05-14T06:35:09;8.23;;;7.53;;
16193;SDS011;8204;53.582;10.080;2023-05-14T06:37:38;8.70;;;7.80;;
16193;SDS011;8204;53.582;10.080;2023-05-14T06:40:07;7.93;;;7.17;;
16193;SDS011;8204;53.582;10.080;2023-05-14T06:42:37;8.17;;;7.37;;
16193;SDS011;8204;53.582;10.080;2023-05-14T06:45:06;7.37;;;6.77;;
16193;SDS011;8204;53.582;10.080;2023-05-14T06:47:38;7.37;;;6.87;;
16193;SDS011;8204;53.582;10.080;2023-05-14T06:50:08;7.00;;;6.60;;
16193;SDS011;8204;53.582;10.080;2023-05-14T06:52:37;6.73;;;6.17;;
16193;SDS011;8204;53.582;10.080;2023-05-14T06:55:08;6.90;;;6.20;;
16193;SDS011;8204;53.582;10.080;2023-05-14T06:57:37;6.40;;;5.80;;
16193;SDS011;8204;53.582;10.080;2023-05-14T07:00:07;7.27;;;6.67;;
16193;SDS011;8204;53.582;10.080;2023-05-14T07:02:40;7.87;;;7.17;;
16193;SDS011;8204;53.582;10.080;2023-05-14T07:05:09;7.30;;;6.60;;
16193;SDS011;8204;53.582;10.080;2023-05-14T07:07:38;7.50;;;6.77;;
16193;SDS011;8204;53.582;10.080;2023-05-14T07:10:07;7.67;;;7.00;;
16193;SDS011;8204;53.582;10.080;2023-05-14T07:12:36;7.20;;;6.70;;
16193;SDS011;8204;53.582;10.080;2023-05-14T07:15:05;7.43;;;6.93;;
16193;SDS011;8204;53.582;10.080;2023-05-14T07:17:39;7.67;;;7.17;;
16193;SDS011;8204;53.582;10.080;2023-05-14T07:20:12;7.47;;;6.97;;
16193;SDS011;8204;53.582;10.080;2023-05-14T07:22:42;7.63;;;7.00;;
16193;SDS011;8204;53.582;10.080;2023-05-14T07:25:11;7.63;;;7.03;;
16193;SDS011;8204;53.582;10.080;2023-05-14T07:27:40;6.97;;;6.40;;
16193;SDS011;8204;53.582;10.080;2023-05-14T07:30:09;6.17;;;5.77;;
16193;SDS011;8204;53.582;10.080;2023-05-14T07:32:41;8.03;;;6.97;;
16193;SDS011;8204;53.582;10.080;2023-05-14T07:35:09;6.57;;;5.90;;
16193;SDS011;8204;53.582;10.080;2023-05-14T07:37:39;5.90;;;5.40;;
16193;SDS011;8204;53.582;10.080;2023-05-14T07:40:08;6.00;;;5.57;;
16193;SDS011;8204;53.582;10.080;2023-05-14T07:42:38;6.27;;;5.77;;
16193;SDS011;8204;53.582;10.080;2023-05-14T07:45:07;7.27;;;6.47;;
16193;SDS011;8204;53.582;10.080;2023-05-14T07:47:37;6.27;;;5.77;;
16193;SDS011;8204;53.582;10.080;2023-05-14T07:50:10;8.17;;;6.50;;
16193;SDS011;8204;53.582;10.080;2023-05-14T07:52:40;6.57;;;6.07;;
16193;SDS011;8204;53.582;10.080;2023-05-14T07:55:09;5.80;;;5.33;;
16193;SDS011;8204;53.582;10.080;2023-05-14T07:57:38;7.90;;;7.10;;
16193;SDS011;8204;53.582;10.080;2023-05-14T08:00:07;6.20;;;5.80;;
16193;SDS011;8204;53.582;10.080;2023-05-14T08:02:36;6.97;;;6.10;;
16193;SDS011;8204;53.582;10.080;2023-05-14T08:05:09;5.90;;;5.40;;
16193;SDS011;8204;53.582;10.080;2023-05-14T08:07:38;6.83;;;6.23;;
16193;SDS011;8204;53.582;10.080;2023-05-14T08:10:07;6.10;;;5.53;;
16193;SDS011;8204;53.582;10.080;2023-05-14T08:12:37;5.77;;;5.33;;
16193;SDS011;8204;53.582;10.080;2023-05-14T08:15:07;6.07;;;5.50;;
16193;SDS011;8204;53.582;10.080;2023-05-14T08:17:37;6.47;;;4.90;;
16193;SDS011;8204;53.582;10.080;2023-05-14T08:20:09;5.73;;;5.33;;
16193;SDS011;8204;53.582;10.080;2023-05-14T08:22:39;6.27;;;5.77;;
16193;SDS011;8204;53.582;10.080;2023-05-14T08:25:08;5.97;;;5.47;;
16193;SDS011;8204;53.582;10.080;2023-05-14T08:27:38;4.80;;;4.40;;
16193;SDS011;8204;53.582;10.080;2023-05-14T08:30:08;5.40;;;4.90;;
16193;SDS011;8204;53.582;10.080;2023-05-14T08:32:37;6.80;;;6.30;;
16193;SDS011;8204;53.582;10.080;2023-05-14T08:35:09;6.30;;;5.70;;
16193;SDS011;8204;53.582;10.080;2023-05-14T08:37:39;5.57;;;5.10;;
16193;SDS011;8204;53.582;10.080;2023-05-14T08:40:08;5.00;;;4.60;;
16193;SDS011;8204;53.582;10.080;2023-05-14T08:42:37;6.60;;;5.37;;
16193;SDS011;8204;53.582;10.080;2023-05-14T08:45:11;6.90;;;5.30;;
16193;SDS011;8204;53.582;10.080;2023-05-14T08:47:46;5.93;;;5.50;;
16193;SDS011;8204;53.582;10.080;2023-05-14T08:50:20;5.10;;;4.70;;
16193;SDS011;8204;53.582;10.080;2023-05-14T08:52:50;6.10;;;5.60;;
16193;SDS011;8204;53.582;10.080;2023-05-14T08:55:20;8.17;;;6.23;;
16193;SDS011;8204;53.582;10.080;2023-05-14T08:57:51;5.50;;;5.00;;
16193;SDS011;8204;53.582;10.080;2023-05-14T09:00:20;5.57;;;4.60;;
16193;SDS011;8204;53.582;10.080;2023-05-14T09:02:52;6.77;;;5.10;;
16193;SDS011;8204;53.582;10.080;2023-05-14T09:05:25;8.33;;;5.27;;
16193;SDS011;8204;53.582;10.080;2023-05-14T09:07:54;5.37;;;4.80;;
16193;SDS011;8204;53.582;10.080;2023-05-14T09:10:24;5.47;;;5.07;;
16193;SDS011;8204;53.582;10.080;2023-05-14T09:12:54;5.40;;;4.70;;
16193;SDS011;8204;53.582;10.080;2023-05-14T09:15:23;5.60;;;5.07;;
16193;SDS011;8204;53.582;10.080;2023-05-14T09:17:57;6.00;;;5.33;;
16193;SDS011;8204;53.582;10.080;2023-05-14T09:20:30;7.37;;;4.43;;
16193;SDS011;8204;53.582;10.080;2023-05-14T09:23:00;5.47;;;4.97;;
16193;SDS011;8204;53.582;10.080;2023-05-14T09:25:30;5.10;;;4.60;;
16193;SDS011;8204;53.582;10.080;2023-05-14T09:28:04;5.47;;;5.07;;
16193;SDS011;8204;53.582;10.080;2023-05-14T09:30:35;5.83;;;5.40;;
16193;SDS011;8204;53.582;10.080;2023-05-14T09:33:06;4.57;;;4.17;;
16193;SDS011;8204;53.582;10.080;2023-05-14T09:35:37;5.10;;;4.60;;
16193;SDS011;8204;53.582;10.080;2023-05-14T09:38:08;8.63;;;4.73;;
16193;SDS011;8204;53.582;10.080;2023-05-14T09:40:38;7.07;;;5.57;;
16193;SDS011;8204;53.582;10.080;2023-05-14T09:43:07;4.90;;;4.40;;
16193;SDS011;8204;53.582;10.080;2023-05-14T09:45:36;4.60;;;4.20;;
16193;SDS011;8204;53.582;10.080;2023-05-14T09:48:07;5.17;;;4.77;;
16193;SDS011;8204;53.582;10.080;2023-05-14T09:50:43;5.07;;;4.67;;
16193;SDS011;8204;53.582;10.080;2023-05-14T09:53:12;4.87;;;4.53;;
16193;SDS011;8204;53.582;10.080;2023-05-14T09:55:43;7.93;;;4.50;;
16193;SDS011;8204;53.582;10.080;2023-05-14T09:58:13;9.00;;;4.70;;
16193;SDS011;8204;53.582;10.080;2023-05-14T10:00:42;4.77;;;4.33;;
16193;SDS011;8204;53.582;10.080;2023-05-14T10:03:13;4.23;;;3.93;;
16193;SDS011;8204;53.582;10.080;2023-05-14T10:05:45;4.67;;;4.27;;
16193;SDS011;8204;53.582;10.080;2023-05-14T10:08:18;5.70;;;5.13;;
16193;SDS011;8204;53.582;10.080;2023-05-14T10:10:52;5.43;;;4.93;;
16193;SDS011;8204;53.582;10.080;2023-05-14T10:13:23;4.77;;;4.47;;
16193;SDS011;8204;53.582;10.080;2023-05-14T10:15:56;6.00;;;4.67;;
16193;SDS011;8204;53.582;10.080;2023-05-14T10:18:35;4.93;;;4.63;;
16193;SDS011;8204;53.582;10.080;2023-05-14T10:21:11;5.00;;;4.60;;
16193;SDS011;8204;53.582;10.080;2023-05-14T10:23:43;5.90;;;4.80;;
16193;SDS011;8204;53.582;10.080;2023-05-14T10:26:13;5.20;;;4.70;;
16193;SDS011;8204;53.582;10.080;2023-05-14T10:28:44;5.33;;;4.93;;
16193;SDS011;8204;53.582;10.080;2023-05-14T10:31:14;5.33;;;4.83;;
16193;SDS011;8204;53.582;10.080;2023-05-14T10:33:46;5.40;;;4.90;;
16193;SDS011;8204;53.582;10.080;2023-05-14T10:36:23;4.83;;;4.53;;
16193;SDS011;8204;53.582;10.080;2023-05-14T10:38:54;6.73;;;5.50;;
16193;SDS011;8204;53.582;10.080;2023-05-14T10:41:24;4.90;;;4.50;;
16193;SDS011;8204;53.582;10.080;2023-05-14T10:43:53;4.53;;;4.13;;
16193;SDS011;8204;53.582;10.080;2023-05-14T10:46:26;4.87;;;4.40;;
16193;SDS011;8204;53.582;10.080;2023-05-14T10:48:55;4.80;;;4.50;;
16193;SDS011;8204;53.582;10.080;2023-05-14T10:51:28;5.83;;;4.70;;
16193;SDS011;8204;53.582;10.080;2023-05-14T10:53:59;4.90;;;4.40;;
16193;SDS011;8204;53.582;10.080;2023-05-14T10:56:29;4.80;;;4.40;;
16193;SDS011;8204;53.582;10.080;2023-05-14T10:58:59;6.77;;;5.57;;
16193;SDS011;8204;53.582;10.080;2023-05-14T11:01:27;5.07;;;4.47;;
16193;SDS011;8204;53.582;10.080;2023-05-14T11:03:58;4.77;;;4.37;;
16193;SDS011;8204;53.582;10.080;2023-05-14T11:06:30;6.93;;;5.03;;
16193;SDS011;8204;53.582;10.080;2023-05-14T11:09:00;4.13;;;3.80;;
16193;SDS011;8204;53.582;10.080;2023-05-14T11:11:30;4.93;;;4.43;;
16193;SDS011;8204;53.582;10.080;2023-05-14T11:13:59;5.47;;;5.00;;
16193;SDS011;8204;53.582;10.080;2023-05-14T11:16:29;4.90;;;4.53;;
16193;SDS011;8204;53.582;10.080;2023-05-14T11:19:02;4.90;;;4.47;;
16193;SDS011;8204;53.582;10.080;2023-05-14T11:21:34;6.00;;;5.20;;
16193;SDS011;8204;53.582;10.080;2023-05-14T11:24:04;6.17;;;5.37;;
16193;SDS011;8204;53.582;10.080;2023-05-14T11:26:34;5.77;;;4.97;;
16193;SDS011;8204;53.582;10.080;2023-05-14T11:29:03;5.70;;;5.13;;
16193;SDS011;8204;53.582;10.080;2023-05-14T11:31:34;5.17;;;4.77;;
16193;SDS011;8204;53.582;10.080;2023-05-14T11:34:03;7.13;;;5.40;;
16193;SDS011;8204;53.582;10.080;2023-05-14T11:36:37;5.53;;;5.13;;
16193;SDS011;8204;53.582;10.080;2023-05-14T11:39:08;5.40;;;5.00;;
16193;SDS011;8204;53.582;10.080;2023-05-14T11:41:42;5.60;;;5.17;;
16193;SDS011;8204;53.582;10.080;2023-05-14T11:44:13;5.03;;;4.63;;
16193;SDS011;8204;53.582;10.080;2023-05-14T11:46:52;5.47;;;4.97;;
16193;SDS011;8204;53.582;10.080;2023-05-14T11:49:22;5.43;;;4.90;;
16193;SDS011;8204;53.582;10.080;2023-05-14T11:51:58;4.47;;;4.17;;
16193;SDS011;8204;53.582;10.080;2023-05-14T11:54:28;285.80;;;266.60;;
16193;SDS011;8204;53.582;10.080;2023-05-14T11:56:59;28.20;;;26.17;;
16193;SDS011;8204;53.582;10.080;2023-05-14T11:59:29;14.83;;;13.43;;
16193;SDS011;8204;53.582;10.080;2023-05-14T12:02:00;5.73;;;5.30;;
16193;SDS011;8204;53.582;10.080;2023-05-14T12:04:30;6.07;;;5.57;;
16193;SDS011;8204;53.582;10.080;2023-05-14T12:07:06;8.23;;;6.30;;
16193;SDS011;8204;53.582;10.080;2023-05-14T12:09:39;6.03;;;5.43;;
16193;SDS011;8204;53.582;10.080;2023-05-14T12:12:14;5.50;;;5.00;;
16193;SDS011;8204;53.582;10.080;2023-05-14T12:14:46;5.73;;;5.33;;
16193;SDS011;8204;53.582;10.080;2023-05-14T12:17:18;5.47;;;5.00;;
16193;SDS011;8204;53.582;10.080;2023-05-14T12:19:50;6.40;;;5.87;;
16193;SDS011;8204;53.582;10.080;2023-05-14T12:22:23;6.77;;;5.20;;
16193;SDS011;8204;53.582;10.080;2023-05-14T12:24:52;8.07;;;7.33;;
16193;SDS011;8204;53.582;10.080;2023-05-14T12:27:22;6.30;;;5.77;;
16193;SDS011;8204;53.582;10.080;2023-05-14T12:29:57;30.27;;;27.67;;
16193;SDS011;8204;53.582;10.080;2023-05-14T12:32:28;9.20;;;8.40;;
16193;SDS011;8204;53.582;10.080;2023-05-14T12:34:59;174.67;;;158.43;;
16193;SDS011;8204;53.582;10.080;2023-05-14T12:37:32;456.97;;;415.67;;
16193;SDS011;8204;53.582;10.080;2023-05-14T12:40:02;635.97;;;577.23;;
16193;SDS011;8204;53.582;10.080;2023-05-14T12:42:34;218.43;;;198.73;;
16193;SDS011;8204;53.582;10.080;2023-05-14T12:45:03;117.47;;;107.87;;
16193;SDS011;8204;53.582;10.080;2023-05-14T12:47:34;82.07;;;74.33;;
16193;SDS011;8204;53.582;10.080;2023-05-14T12:50:04;352.87;;;320.53;;
16193;SDS011;8204;53.582;10.080;2023-05-14T12:52:37;58.27;;;53.03;;
16193;SDS011;8204;53.582;10.080;2023-05-14T12:55:07;181.93;;;166.43;;
16193;SDS011;8204;53.582;10.080;2023-05-14T12:57:37;28.07;;;25.73;;
16193;SDS011;8204;53.582;10.080;2023-05-14T13:00:07;9.97;;;6.03;;
16193;SDS011;8204;53.582;10.080;2023-05-14T13:02:37;35.87;;;32.93;;
16193;SDS011;8204;53.582;10.080;2023-05-14T13:05:07;12.47;;;11.37;;
16193;SDS011;8204;53.582;10.080;2023-05-14T13:07:40;5.27;;;4.77;;
16193;SDS011;8204;53.582;10.080;2023-05-14T13:10:10;5.10;;;4.60;;
16193;SDS011;8204;53.582;10.080;2023-05-14T13:12:40;7.60;;;6.00;;
16193;SDS011;8204;53.582;10.080;2023-05-14T13:15:10;6.90;;;6.30;;
16193;SDS011;8204;53.582;10.080;2023-05-14T13:17:40;6.00;;;5.37;;
16193;SDS011;8204;53.582;10.080;2023-05-14T13:20:10;6.37;;;5.73;;
16193;SDS011;8204;53.582;10.080;2023-05-14T13:22:43;7.67;;;6.97;;
16193;SDS011;8204;53.582;10.080;2023-05-14T13:25:12;6.00;;;5.30;;
16193;SDS011;8204;53.582;10.080;2023-05-14T13:27:41;5.87;;;5.43;;
16193;SDS011;8204;53.582;10.080;2023-05-14T13:30:11;7.43;;;5.93;;
16193;SDS011;8204;53.582;10.080;2023-05-14T13:32:40;5.90;;;5.13;;
16193;SDS011;8204;53.582;10.080;2023-05-14T13:35:10;8.67;;;7.83;;
16193;SDS011;8204;53.582;10.080;2023-05-14T13:37:44;6.33;;;5.73;;
16193;SDS011;8204;53.582;10.080;2023-05-14T13:40:13;7.07;;;5.70;;
16193;SDS011;8204;53.582;10.080;2023-05-14T13:42:42;7.17;;;5.60;;
16193;SDS011;8204;53.582;10.080;2023-05-14T13:45:12;5.47;;;4.97;;
16193;SDS011;8204;53.582;10.080;2023-05-14T13:47:41;5.53;;;5.10;;
16193;SDS011;8204;53.582;10.080;2023-05-14T13:50:10;5.23;;;4.83;;
16193;SDS011;8204;53.582;10.080;2023-05-14T13:52:39;23.00;;;18.30;;
16193;SDS011;8204;53.582;10.080;2023-05-14T13:55:11;149.93;;;110.67;;
16193;SDS011;8204;53.582;10.080;2023-05-14T13:57:42;31.87;;;26.67;;
16193;SDS011;8204;53.582;10.080;2023-05-14T14:00:12;10.47;;;8.97;;
16193;SDS011;8204;53.582;10.080;2023-05-14T14:02:45;5.60;;;5.20;;
16193;SDS011;8204;53.582;10.080;2023-05-14T14:05:14;7.07;;;6.47;;
16193;SDS011;8204;53.582;10.080;2023-05-14T14:07:44;8.57;;;6.17;;
16193;SDS011;8204;53.582;10.080;2023-05-14T14:10:25;6.03;;;5.57;;
16193;SDS011;8204;53.582;10.080;2023-05-14T14:12:56;12.10;;;10.93;;
16193;SDS011;8204;53.582;10.080;2023-05-14T14:15:26;8.87;;;7.97;;
16193;SDS011;8204;53.582;10.080;2023-05-14T14:17:55;5.07;;;4.67;;
16193;SDS011;8204;53.582;10.080;2023-05-14T14:20:26;5.87;;;5.30;;
16193;SDS011;8204;53.582;10.080;2023-05-14T14:22:55;4.97;;;4.63;;
16193;SDS011;8204;53.582;10.080;2023-05-14T14:25:28;5.07;;;4.77;;
16193;SDS011;8204;53.582;10.080;2023-05-14T14:27:58;4.73;;;4.43;;
16193;SDS011;8204;53.582;10.080;2023-05-14T14:30:28;5.47;;;5.00;;
16193;SDS011;8204;53.582;10.080;2023-05-14T14:32:57;5.60;;;5.10;;
16193;SDS011;8204;53.582;10.080;2023-05-14T14:35:28;5.80;;;5.30;;
16193;SDS011;8204;53.582;10.080;2023-05-14T14:37:58;5.43;;;4.90;;
16193;SDS011;8204;53.582;10.080;2023-05-14T14:40:31;6.10;;;5.37;;
16193;SDS011;8204;53.582;10.080;2023-05-14T14:43:01;6.57;;;5.23;;
16193;SDS011;8204;53.582;10.080;2023-05-14T14:45:31;5.67;;;5.13;;
16193;SDS011;8204;53.582;10.080;2023-05-14T14:50:51;5.53;;;5.10;;
16193;SDS011;8204;53.582;10.080;2023-05-14T14:53:21;5.70;;;5.30;;
16193;SDS011;8204;53.582;10.080;2023-05-14T14:55:55;6.07;;;5.67;;
16193;SDS011;8204;53.582;10.080;2023-05-14T14:58:26;5.77;;;5.27;;
16193;SDS011;8204;53.582;10.080;2023-05-14T15:00:55;5.80;;;5.23;;
16193;SDS011;8204;53.582;10.080;2023-05-14T15:03:25;6.27;;;5.67;;
16193;SDS011;8204;53.582;10.080;2023-05-14T15:05:54;5.57;;;5.17;;
16193;SDS011;8204;53.582;10.080;2023-05-14T15:08:25;5.93;;;5.10;;